Tipton, MI (49287)

6:36 AM EST on February 13, 2016 (GMT -0500)
Tecumseh Twp | | Change Station
CLOSE
Current Station
Personal Weather Station
Location: Tecumseh, MI
Elevation: 876 ft
Nearby Weather Stations

Elev 876 ft 42.02 °N, 83.99 °W | Updated 57 seconds ago

Clear
Clear
1.8 °F
Feels Like -8 °F
N
4.7
Wind Variable Wind from WNW
Gusts 4.7 mph

Today
High -- | Low -- °F
--% Chance of Precip.
Yesterday
High -- | Low -- °F
Precip. -- in
Pressure 30.45 in
Visibility 10.0 miles
Clouds Clear
Windchill -8 °F
Dew Point -6 °F
Humidity 68%
Rainfall 0.00 in
Snow Depth Not available.
7:35 AM 6:06 PM
Waxing Crescent, 30% visible
METAR KADG 131053Z AUTO 31005KT 10SM CLR M17/M22 A3039 RMK AO2 SLP311 T11671217
Pressure 30.45 in
Visibility 10.0 miles
Clouds Clear
Windchill -8 °F
Dew Point -6 °F
Humidity 68%
Rainfall 0.00 in
Snow Depth Not available.
7:35 AM 6:06 PM
Waxing Crescent, 30% visible
METAR KADG 131053Z AUTO 31005KT 10SM CLR M17/M22 A3039 RMK AO2 SLP311 T11671217

10-Day Weather Forecast

Almanac

Astronomy

Feb. 13, 2016 Rise Set
Actual Time
Civil Twilight
Nautical Twilight
Astronomical Twilight
Moon
Length of Visible Light
Length of Day
Tomorrow will be .
, % of the Moon is Illuminated

Today's Extremes

State Highs State Lows

Community

WunderPhotos

Upload Photos

1,892,541 photos uploaded!

WunderBlog® & News

Nearby

Air Quality

  Air Quality AQ Index Pollutant
Not available.

Snow Depth

Station Depth Elevation

Earthquake Activity

City Distance Mag. Time & Date
Minimum magnitude displayed is 2.5.

Coastal Water Temperatures

Place Temperature

Stations

Nearby Weather Stations

Station Location Temp. Windchill Dew Point Humidity Wind Precip. Elev Updated Type
                   

Watches & Warnings

There are currently no watches in effect.